sensor_id;sensor_type;location;lat;lon;timestamp;P1;durP1;ratioP1;P2;durP2;ratioP2
50745;SDS011;36711;51.972;21.204;2022-07-03T00:02:13;1.60;;;1.20;;
50745;SDS011;36711;51.972;21.204;2022-07-03T00:04:41;3.90;;;0.90;;
50745;SDS011;36711;51.972;21.204;2022-07-03T00:07:09;2.90;;;1.30;;
50745;SDS011;36711;51.972;21.204;2022-07-03T00:09:37;1.60;;;1.30;;
50745;SDS011;36711;51.972;21.204;2022-07-03T00:12:05;4.80;;;1.20;;
50745;SDS011;36711;51.972;21.204;2022-07-03T00:14:34;2.20;;;1.20;;
50745;SDS011;36711;51.972;21.204;2022-07-03T00:17:02;2.90;;;1.30;;
50745;SDS011;36711;51.972;21.204;2022-07-03T00:19:30;1.90;;;1.20;;
50745;SDS011;36711;51.972;21.204;2022-07-03T00:22:04;5.30;;;1.30;;
50745;SDS011;36711;51.972;21.204;2022-07-03T00:24:42;3.90;;;1.20;;
50745;SDS011;36711;51.972;21.204;2022-07-03T00:27:17;4.20;;;1.60;;
50745;SDS011;36711;51.972;21.204;2022-07-03T00:29:47;4.90;;;1.20;;
50745;SDS011;36711;51.972;21.204;2022-07-03T00:32:22;4.10;;;1.40;;
50745;SDS011;36711;51.972;21.204;2022-07-03T00:34:51;3.00;;;1.30;;
50745;SDS011;36711;51.972;21.204;2022-07-03T00:37:22;3.80;;;1.40;;
50745;SDS011;36711;51.972;21.204;2022-07-03T00:39:50;2.20;;;1.20;;
50745;SDS011;36711;51.972;21.204;2022-07-03T00:42:18;2.60;;;1.30;;
50745;SDS011;36711;51.972;21.204;2022-07-03T00:44:47;3.00;;;1.40;;
50745;SDS011;36711;51.972;21.204;2022-07-03T00:47:18;2.10;;;1.30;;
50745;SDS011;36711;51.972;21.204;2022-07-03T00:49:52;1.50;;;1.30;;
50745;SDS011;36711;51.972;21.204;2022-07-03T00:52:21;2.70;;;1.20;;
50745;SDS011;36711;51.972;21.204;2022-07-03T00:54:53;2.10;;;1.10;;
50745;SDS011;36711;51.972;21.204;2022-07-03T00:57:25;3.90;;;1.20;;
50745;SDS011;36711;51.972;21.204;2022-07-03T00:59:55;4.40;;;1.30;;
50745;SDS011;36711;51.972;21.204;2022-07-03T01:10:49;2.10;;;1.30;;
50745;SDS011;36711;51.972;21.204;2022-07-03T01:38:36;1.50;;;1.00;;
50745;SDS011;36711;51.972;21.204;2022-07-03T01:41:06;2.00;;;1.30;;
50745;SDS011;36711;51.972;21.204;2022-07-03T01:43:38;5.10;;;1.40;;
50745;SDS011;36711;51.972;21.204;2022-07-03T01:46:09;1.80;;;1.20;;
50745;SDS011;36711;51.972;21.204;2022-07-03T01:48:41;2.60;;;1.40;;
50745;SDS011;36711;51.972;21.204;2022-07-03T01:51:14;1.50;;;1.20;;
50745;SDS011;36711;51.972;21.204;2022-07-03T01:53:44;2.50;;;1.20;;
50745;SDS011;36711;51.972;21.204;2022-07-03T01:56:14;4.40;;;1.40;;
50745;SDS011;36711;51.972;21.204;2022-07-03T01:58:42;5.80;;;1.40;;
50745;SDS011;36711;51.972;21.204;2022-07-03T02:01:28;1.40;;;1.20;;
50745;SDS011;36711;51.972;21.204;2022-07-03T02:04:04;2.70;;;1.40;;
50745;SDS011;36711;51.972;21.204;2022-07-03T02:07:02;2.50;;;1.20;;
50745;SDS011;36711;51.972;21.204;2022-07-03T02:09:40;1.50;;;1.00;;
50745;SDS011;36711;51.972;21.204;2022-07-03T02:12:18;5.10;;;1.40;;
50745;SDS011;36711;51.972;21.204;2022-07-03T02:14:53;3.60;;;1.20;;
50745;SDS011;36711;51.972;21.204;2022-07-03T02:17:29;2.40;;;1.30;;
50745;SDS011;36711;51.972;21.204;2022-07-03T02:22:44;4.10;;;1.60;;
50745;SDS011;36711;51.972;21.204;2022-07-03T02:25:21;3.60;;;1.30;;
50745;SDS011;36711;51.972;21.204;2022-07-03T02:27:56;1.90;;;1.10;;
50745;SDS011;36711;51.972;21.204;2022-07-03T02:30:33;1.70;;;1.30;;
50745;SDS011;36711;51.972;21.204;2022-07-03T02:33:02;1.90;;;1.30;;
50745;SDS011;36711;51.972;21.204;2022-07-03T02:35:34;1.90;;;1.20;;
50745;SDS011;36711;51.972;21.204;2022-07-03T02:38:06;1.90;;;1.30;;
50745;SDS011;36711;51.972;21.204;2022-07-03T02:40:39;4.10;;;1.30;;
50745;SDS011;36711;51.972;21.204;2022-07-03T02:43:30;1.60;;;1.00;;
50745;SDS011;36711;51.972;21.204;2022-07-03T02:55:10;2.60;;;1.30;;
50745;SDS011;36711;51.972;21.204;2022-07-03T02:57:59;2.50;;;1.20;;
50745;SDS011;36711;51.972;21.204;2022-07-03T03:00:33;2.90;;;1.10;;
50745;SDS011;36711;51.972;21.204;2022-07-03T03:03:04;1.10;;;0.90;;
50745;SDS011;36711;51.972;21.204;2022-07-03T03:05:37;2.10;;;1.40;;
50745;SDS011;36711;51.972;21.204;2022-07-03T03:08:16;1.30;;;1.10;;
50745;SDS011;36711;51.972;21.204;2022-07-03T03:10:52;1.60;;;1.50;;
50745;SDS011;36711;51.972;21.204;2022-07-03T03:13:30;1.60;;;1.20;;
50745;SDS011;36711;51.972;21.204;2022-07-03T03:16:06;1.60;;;1.00;;
50745;SDS011;36711;51.972;21.204;2022-07-03T03:18:36;1.40;;;1.30;;
50745;SDS011;36711;51.972;21.204;2022-07-03T03:21:08;3.70;;;1.50;;
50745;SDS011;36711;51.972;21.204;2022-07-03T03:23:49;3.30;;;1.30;;
50745;SDS011;36711;51.972;21.204;2022-07-03T03:26:22;3.90;;;1.70;;
50745;SDS011;36711;51.972;21.204;2022-07-03T03:28:55;2.60;;;1.30;;
50745;SDS011;36711;51.972;21.204;2022-07-03T03:31:23;2.60;;;1.20;;
50745;SDS011;36711;51.972;21.204;2022-07-03T03:33:51;2.80;;;1.30;;
50745;SDS011;36711;51.972;21.204;2022-07-03T03:36:20;2.20;;;1.40;;
50745;SDS011;36711;51.972;21.204;2022-07-03T03:38:48;3.80;;;1.40;;
50745;SDS011;36711;51.972;21.204;2022-07-03T03:41:17;3.60;;;1.50;;
50745;SDS011;36711;51.972;21.204;2022-07-03T03:43:45;4.20;;;1.30;;
50745;SDS011;36711;51.972;21.204;2022-07-03T03:46:13;2.00;;;1.10;;
50745;SDS011;36711;51.972;21.204;2022-07-03T03:48:42;4.60;;;1.50;;
50745;SDS011;36711;51.972;21.204;2022-07-03T03:51:10;2.50;;;1.50;;
50745;SDS011;36711;51.972;21.204;2022-07-03T03:53:38;4.20;;;1.50;;
50745;SDS011;36711;51.972;21.204;2022-07-03T03:56:08;2.60;;;1.50;;
50745;SDS011;36711;51.972;21.204;2022-07-03T03:58:39;3.00;;;1.30;;
50745;SDS011;36711;51.972;21.204;2022-07-03T04:01:09;1.80;;;1.10;;
50745;SDS011;36711;51.972;21.204;2022-07-03T04:03:38;4.60;;;1.30;;
50745;SDS011;36711;51.972;21.204;2022-07-03T04:06:07;2.70;;;1.30;;
50745;SDS011;36711;51.972;21.204;2022-07-03T04:08:36;5.60;;;1.50;;
50745;SDS011;36711;51.972;21.204;2022-07-03T04:11:03;2.60;;;1.30;;
50745;SDS011;36711;51.972;21.204;2022-07-03T04:13:32;1.60;;;1.50;;
50745;SDS011;36711;51.972;21.204;2022-07-03T04:15:59;12.00;;;3.40;;
50745;SDS011;36711;51.972;21.204;2022-07-03T04:18:27;3.10;;;1.20;;
50745;SDS011;36711;51.972;21.204;2022-07-03T04:20:59;2.80;;;1.30;;
50745;SDS011;36711;51.972;21.204;2022-07-03T04:23:27;5.60;;;1.20;;
50745;SDS011;36711;51.972;21.204;2022-07-03T04:25:55;2.00;;;1.30;;
50745;SDS011;36711;51.972;21.204;2022-07-03T04:28:23;1.70;;;1.20;;
50745;SDS011;36711;51.972;21.204;2022-07-03T04:30:50;3.10;;;1.10;;
50745;SDS011;36711;51.972;21.204;2022-07-03T04:33:18;2.50;;;1.40;;
50745;SDS011;36711;51.972;21.204;2022-07-03T04:35:46;1.90;;;1.30;;
50745;SDS011;36711;51.972;21.204;2022-07-03T04:38:14;6.10;;;1.50;;
50745;SDS011;36711;51.972;21.204;2022-07-03T04:40:42;4.80;;;1.20;;
50745;SDS011;36711;51.972;21.204;2022-07-03T04:43:10;4.90;;;1.30;;
50745;SDS011;36711;51.972;21.204;2022-07-03T04:45:37;2.10;;;1.10;;
50745;SDS011;36711;51.972;21.204;2022-07-03T04:48:05;2.60;;;1.40;;
50745;SDS011;36711;51.972;21.204;2022-07-03T04:50:33;2.30;;;1.20;;
50745;SDS011;36711;51.972;21.204;2022-07-03T04:53:01;3.20;;;1.20;;
50745;SDS011;36711;51.972;21.204;2022-07-03T04:55:28;2.10;;;1.20;;
50745;SDS011;36711;51.972;21.204;2022-07-03T04:57:56;2.80;;;1.40;;
50745;SDS011;36711;51.972;21.204;2022-07-03T05:00:24;1.50;;;1.10;;
50745;SDS011;36711;51.972;21.204;2022-07-03T05:02:52;4.30;;;1.50;;
50745;SDS011;36711;51.972;21.204;2022-07-03T05:05:20;2.10;;;1.40;;
50745;SDS011;36711;51.972;21.204;2022-07-03T05:07:48;3.10;;;1.20;;
50745;SDS011;36711;51.972;21.204;2022-07-03T05:10:16;4.50;;;1.30;;
50745;SDS011;36711;51.972;21.204;2022-07-03T05:12:44;4.00;;;1.30;;
50745;SDS011;36711;51.972;21.204;2022-07-03T05:15:12;2.70;;;1.00;;
50745;SDS011;36711;51.972;21.204;2022-07-03T05:17:39;1.30;;;0.90;;
50745;SDS011;36711;51.972;21.204;2022-07-03T05:20:07;5.00;;;1.60;;
50745;SDS011;36711;51.972;21.204;2022-07-03T05:22:51;5.40;;;1.10;;
50745;SDS011;36711;51.972;21.204;2022-07-03T05:25:20;0.90;;;0.70;;
50745;SDS011;36711;51.972;21.204;2022-07-03T05:27:49;3.30;;;1.10;;
50745;SDS011;36711;51.972;21.204;2022-07-03T05:30:17;2.30;;;0.80;;
50745;SDS011;36711;51.972;21.204;2022-07-03T05:32:45;0.70;;;0.50;;
50745;SDS011;36711;51.972;21.204;2022-07-03T05:35:13;1.70;;;0.60;;
50745;SDS011;36711;51.972;21.204;2022-07-03T05:37:41;3.60;;;0.90;;
50745;SDS011;36711;51.972;21.204;2022-07-03T05:40:08;1.30;;;0.70;;
50745;SDS011;36711;51.972;21.204;2022-07-03T05:42:37;5.20;;;0.70;;
50745;SDS011;36711;51.972;21.204;2022-07-03T05:45:05;1.60;;;0.60;;
50745;SDS011;36711;51.972;21.204;2022-07-03T05:47:33;2.40;;;0.60;;
50745;SDS011;36711;51.972;21.204;2022-07-03T05:50:01;1.70;;;0.70;;
50745;SDS011;36711;51.972;21.204;2022-07-03T05:52:28;2.70;;;0.70;;
50745;SDS011;36711;51.972;21.204;2022-07-03T05:54:56;0.80;;;0.70;;
50745;SDS011;36711;51.972;21.204;2022-07-03T05:57:24;2.00;;;0.70;;
50745;SDS011;36711;51.972;21.204;2022-07-03T05:59:57;1.80;;;0.60;;
50745;SDS011;36711;51.972;21.204;2022-07-03T06:02:25;1.30;;;0.80;;
50745;SDS011;36711;51.972;21.204;2022-07-03T06:04:53;0.80;;;0.80;;
50745;SDS011;36711;51.972;21.204;2022-07-03T06:07:21;2.80;;;0.90;;
50745;SDS011;36711;51.972;21.204;2022-07-03T06:09:49;4.10;;;0.90;;
50745;SDS011;36711;51.972;21.204;2022-07-03T06:12:17;2.50;;;0.70;;
50745;SDS011;36711;51.972;21.204;2022-07-03T06:14:44;1.50;;;0.50;;
50745;SDS011;36711;51.972;21.204;2022-07-03T06:17:12;1.80;;;0.70;;
50745;SDS011;36711;51.972;21.204;2022-07-03T06:19:40;3.50;;;0.70;;
50745;SDS011;36711;51.972;21.204;2022-07-03T06:22:08;3.00;;;0.70;;
50745;SDS011;36711;51.972;21.204;2022-07-03T06:24:36;0.70;;;0.50;;
50745;SDS011;36711;51.972;21.204;2022-07-03T06:27:04;1.20;;;0.60;;
50745;SDS011;36711;51.972;21.204;2022-07-03T06:29:31;2.90;;;0.70;;
50745;SDS011;36711;51.972;21.204;2022-07-03T06:31:59;2.20;;;0.80;;
50745;SDS011;36711;51.972;21.204;2022-07-03T06:34:27;1.90;;;0.60;;
50745;SDS011;36711;51.972;21.204;2022-07-03T06:36:55;2.20;;;0.70;;
50745;SDS011;36711;51.972;21.204;2022-07-03T06:39:23;2.40;;;0.50;;
50745;SDS011;36711;51.972;21.204;2022-07-03T06:41:50;2.40;;;0.90;;
50745;SDS011;36711;51.972;21.204;2022-07-03T06:44:18;2.00;;;0.60;;
50745;SDS011;36711;51.972;21.204;2022-07-03T06:46:46;2.30;;;0.70;;
50745;SDS011;36711;51.972;21.204;2022-07-03T06:49:14;1.80;;;0.80;;
50745;SDS011;36711;51.972;21.204;2022-07-03T06:51:42;1.00;;;0.60;;
50745;SDS011;36711;51.972;21.204;2022-07-03T06:54:10;0.60;;;0.50;;
50745;SDS011;36711;51.972;21.204;2022-07-03T06:56:38;1.20;;;0.70;;
50745;SDS011;36711;51.972;21.204;2022-07-03T06:59:05;1.40;;;0.50;;
50745;SDS011;36711;51.972;21.204;2022-07-03T07:01:33;1.80;;;0.60;;
50745;SDS011;36711;51.972;21.204;2022-07-03T07:04:01;2.80;;;0.70;;
50745;SDS011;36711;51.972;21.204;2022-07-03T07:06:35;1.70;;;0.50;;
50745;SDS011;36711;51.972;21.204;2022-07-03T07:09:03;0.70;;;0.50;;
50745;SDS011;36711;51.972;21.204;2022-07-03T07:11:31;1.30;;;0.40;;
50745;SDS011;36711;51.972;21.204;2022-07-03T07:13:59;7.60;;;4.80;;
50745;SDS011;36711;51.972;21.204;2022-07-03T07:16:27;1.20;;;0.80;;
50745;SDS011;36711;51.972;21.204;2022-07-03T07:18:56;1.30;;;0.90;;
50745;SDS011;36711;51.972;21.204;2022-07-03T07:21:24;3.60;;;0.90;;
50745;SDS011;36711;51.972;21.204;2022-07-03T07:23:52;1.10;;;0.50;;
50745;SDS011;36711;51.972;21.204;2022-07-03T07:26:20;1.40;;;0.70;;
50745;SDS011;36711;51.972;21.204;2022-07-03T07:28:48;1.40;;;0.60;;
50745;SDS011;36711;51.972;21.204;2022-07-03T07:31:15;6.40;;;0.60;;
50745;SDS011;36711;51.972;21.204;2022-07-03T07:33:43;1.10;;;0.40;;
50745;SDS011;36711;51.972;21.204;2022-07-03T07:36:11;2.20;;;0.50;;
50745;SDS011;36711;51.972;21.204;2022-07-03T07:38:39;4.00;;;0.60;;
50745;SDS011;36711;51.972;21.204;2022-07-03T07:41:06;1.40;;;0.50;;
50745;SDS011;36711;51.972;21.204;2022-07-03T07:43:34;2.30;;;0.50;;
50745;SDS011;36711;51.972;21.204;2022-07-03T07:46:02;0.70;;;0.40;;
50745;SDS011;36711;51.972;21.204;2022-07-03T07:48:30;0.40;;;0.40;;
50745;SDS011;36711;51.972;21.204;2022-07-03T07:50:58;0.40;;;0.30;;
50745;SDS011;36711;51.972;21.204;2022-07-03T07:53:26;1.00;;;0.30;;
50745;SDS011;36711;51.972;21.204;2022-07-03T07:55:54;1.00;;;0.40;;
50745;SDS011;36711;51.972;21.204;2022-07-03T07:58:21;0.50;;;0.30;;
50745;SDS011;36711;51.972;21.204;2022-07-03T08:00:49;1.30;;;0.30;;
50745;SDS011;36711;51.972;21.204;2022-07-03T08:03:35;1.70;;;0.70;;
50745;SDS011;36711;51.972;21.204;2022-07-03T08:06:22;0.70;;;0.30;;
50745;SDS011;36711;51.972;21.204;2022-07-03T08:08:50;1.30;;;0.50;;
50745;SDS011;36711;51.972;21.204;2022-07-03T08:11:18;2.20;;;0.50;;
50745;SDS011;36711;51.972;21.204;2022-07-03T08:13:46;1.60;;;0.60;;
50745;SDS011;36711;51.972;21.204;2022-07-03T08:16:13;4.30;;;0.30;;
50745;SDS011;36711;51.972;21.204;2022-07-03T08:18:41;2.30;;;0.40;;
50745;SDS011;36711;51.972;21.204;2022-07-03T08:21:10;1.30;;;0.40;;
50745;SDS011;36711;51.972;21.204;2022-07-03T08:23:38;0.70;;;0.30;;
50745;SDS011;36711;51.972;21.204;2022-07-03T08:26:06;0.70;;;0.30;;
50745;SDS011;36711;51.972;21.204;2022-07-03T08:28:34;1.90;;;0.40;;
50745;SDS011;36711;51.972;21.204;2022-07-03T08:31:01;2.40;;;0.30;;
50745;SDS011;36711;51.972;21.204;2022-07-03T08:33:29;0.50;;;0.30;;
50745;SDS011;36711;51.972;21.204;2022-07-03T08:36:07;0.90;;;0.40;;
50745;SDS011;36711;51.972;21.204;2022-07-03T08:38:35;0.90;;;0.40;;
50745;SDS011;36711;51.972;21.204;2022-07-03T08:41:03;0.90;;;0.30;;
50745;SDS011;36711;51.972;21.204;2022-07-03T08:43:31;0.40;;;0.40;;
50745;SDS011;36711;51.972;21.204;2022-07-03T08:46:00;0.60;;;0.40;;
50745;SDS011;36711;51.972;21.204;2022-07-03T08:48:29;1.20;;;0.30;;
50745;SDS011;36711;51.972;21.204;2022-07-03T08:50:59;0.60;;;0.30;;
50745;SDS011;36711;51.972;21.204;2022-07-03T08:53:28;1.40;;;0.20;;
50745;SDS011;36711;51.972;21.204;2022-07-03T08:55:56;2.50;;;0.40;;
50745;SDS011;36711;51.972;21.204;2022-07-03T08:58:24;1.10;;;0.40;;
50745;SDS011;36711;51.972;21.204;2022-07-03T09:00:54;1.30;;;0.50;;
50745;SDS011;36711;51.972;21.204;2022-07-03T09:03:22;2.50;;;0.50;;
50745;SDS011;36711;51.972;21.204;2022-07-03T09:05:52;0.50;;;0.40;;
50745;SDS011;36711;51.972;21.204;2022-07-03T09:08:19;1.40;;;0.40;;
50745;SDS011;36711;51.972;21.204;2022-07-03T09:10:48;1.00;;;0.50;;
50745;SDS011;36711;51.972;21.204;2022-07-03T09:13:16;1.10;;;0.40;;
50745;SDS011;36711;51.972;21.204;2022-07-03T09:15:44;2.00;;;0.60;;
50745;SDS011;36711;51.972;21.204;2022-07-03T09:18:11;1.60;;;0.30;;
50745;SDS011;36711;51.972;21.204;2022-07-03T09:20:40;0.90;;;0.40;;
50745;SDS011;36711;51.972;21.204;2022-07-03T09:23:09;1.00;;;0.50;;
50745;SDS011;36711;51.972;21.204;2022-07-03T09:25:55;0.50;;;0.30;;
50745;SDS011;36711;51.972;21.204;2022-07-03T09:31:16;1.10;;;0.40;;
50745;SDS011;36711;51.972;21.204;2022-07-03T09:33:51;2.50;;;0.40;;
50745;SDS011;36711;51.972;21.204;2022-07-03T09:36:21;0.90;;;0.30;;
50745;SDS011;36711;51.972;21.204;2022-07-03T09:38:50;1.30;;;0.30;;
50745;SDS011;36711;51.972;21.204;2022-07-03T09:41:18;1.30;;;0.40;;
50745;SDS011;36711;51.972;21.204;2022-07-03T09:43:46;2.20;;;0.30;;
50745;SDS011;36711;51.972;21.204;2022-07-03T09:46:14;0.50;;;0.30;;
50745;SDS011;36711;51.972;21.204;2022-07-03T09:48:41;2.00;;;0.40;;
50745;SDS011;36711;51.972;21.204;2022-07-03T09:51:16;2.00;;;0.30;;
50745;SDS011;36711;51.972;21.204;2022-07-03T09:53:57;0.30;;;0.20;;
50745;SDS011;36711;51.972;21.204;2022-07-03T10:01:38;0.80;;;0.20;;
50745;SDS011;36711;51.972;21.204;2022-07-03T10:09:26;0.50;;;0.30;;
50745;SDS011;36711;51.972;21.204;2022-07-03T10:11:56;0.90;;;0.40;;
50745;SDS011;36711;51.972;21.204;2022-07-03T10:14:29;1.80;;;0.40;;
50745;SDS011;36711;51.972;21.204;2022-07-03T10:16:58;0.90;;;0.40;;
50745;SDS011;36711;51.972;21.204;2022-07-03T10:19:29;4.10;;;0.60;;
50745;SDS011;36711;51.972;21.204;2022-07-03T10:22:01;0.80;;;0.40;;
50745;SDS011;36711;51.972;21.204;2022-07-03T10:24:31;1.00;;;0.60;;
50745;SDS011;36711;51.972;21.204;2022-07-03T10:26:59;0.80;;;0.50;;
50745;SDS011;36711;51.972;21.204;2022-07-03T10:29:27;2.40;;;0.70;;
50745;SDS011;36711;51.972;21.204;2022-07-03T10:31:56;0.60;;;0.60;;
50745;SDS011;36711;51.972;21.204;2022-07-03T10:34:26;1.00;;;0.60;;
50745;SDS011;36711;51.972;21.204;2022-07-03T10:36:59;1.80;;;0.60;;
50745;SDS011;36711;51.972;21.204;2022-07-03T10:39:40;0.80;;;0.70;;
50745;SDS011;36711;51.972;21.204;2022-07-03T10:42:16;3.30;;;0.80;;
50745;SDS011;36711;51.972;21.204;2022-07-03T10:45:20;1.80;;;0.70;;
50745;SDS011;36711;51.972;21.204;2022-07-03T10:47:49;1.00;;;0.70;;
50745;SDS011;36711;51.972;21.204;2022-07-03T10:50:17;2.00;;;0.70;;
50745;SDS011;36711;51.972;21.204;2022-07-03T10:52:47;1.50;;;0.60;;
50745;SDS011;36711;51.972;21.204;2022-07-03T10:55:16;1.00;;;0.50;;
50745;SDS011;36711;51.972;21.204;2022-07-03T11:00:57;2.30;;;0.50;;
50745;SDS011;36711;51.972;21.204;2022-07-03T11:09:25;0.60;;;0.40;;
50745;SDS011;36711;51.972;21.204;2022-07-03T11:11:53;0.50;;;0.40;;
50745;SDS011;36711;51.972;21.204;2022-07-03T11:14:24;1.40;;;0.30;;
50745;SDS011;36711;51.972;21.204;2022-07-03T11:19:58;1.20;;;0.60;;
50745;SDS011;36711;51.972;21.204;2022-07-03T11:23:35;0.90;;;0.20;;
50745;SDS011;36711;51.972;21.204;2022-07-03T11:25:54;2.10;;;0.30;;
50745;SDS011;36711;51.972;21.204;2022-07-03T11:33:45;1.10;;;0.30;;
50745;SDS011;36711;51.972;21.204;2022-07-03T11:41:23;0.60;;;0.20;;
50745;SDS011;36711;51.972;21.204;2022-07-03T11:43:52;0.40;;;0.20;;
50745;SDS011;36711;51.972;21.204;2022-07-03T11:46:24;0.20;;;0.20;;
50745;SDS011;36711;51.972;21.204;2022-07-03T11:51:36;1.20;;;0.40;;
50745;SDS011;36711;51.972;21.204;2022-07-03T11:54:06;0.30;;;0.10;;
50745;SDS011;36711;51.972;21.204;2022-07-03T11:56:34;0.40;;;0.20;;
50745;SDS011;36711;51.972;21.204;2022-07-03T11:59:04;1.70;;;0.40;;
50745;SDS011;36711;51.972;21.204;2022-07-03T12:01:33;0.50;;;0.20;;
50745;SDS011;36711;51.972;21.204;2022-07-03T12:04:04;1.10;;;0.30;;
50745;SDS011;36711;51.972;21.204;2022-07-03T12:11:38;1.00;;;0.40;;
50745;SDS011;36711;51.972;21.204;2022-07-03T12:14:06;0.70;;;0.20;;
50745;SDS011;36711;51.972;21.204;2022-07-03T12:16:34;0.60;;;0.30;;
50745;SDS011;36711;51.972;21.204;2022-07-03T12:19:03;0.70;;;0.20;;
50745;SDS011;36711;51.972;21.204;2022-07-03T12:21:39;1.30;;;0.50;;
50745;SDS011;36711;51.972;21.204;2022-07-03T12:24:13;3.30;;;0.40;;
50745;SDS011;36711;51.972;21.204;2022-07-03T12:26:41;0.80;;;0.40;;
50745;SDS011;36711;51.972;21.204;2022-07-03T12:29:10;1.60;;;0.50;;
50745;SDS011;36711;51.972;21.204;2022-07-03T12:31:40;0.50;;;0.40;;
50745;SDS011;36711;51.972;21.204;2022-07-03T12:34:10;0.40;;;0.30;;
50745;SDS011;36711;51.972;21.204;2022-07-03T12:36:38;1.10;;;0.20;;
50745;SDS011;36711;51.972;21.204;2022-07-03T12:39:06;1.00;;;0.30;;
50745;SDS011;36711;51.972;21.204;2022-07-03T12:41:34;0.40;;;0.30;;
50745;SDS011;36711;51.972;21.204;2022-07-03T12:44:02;2.00;;;0.30;;
50745;SDS011;36711;51.972;21.204;2022-07-03T12:46:33;1.30;;;0.50;;
50745;SDS011;36711;51.972;21.204;2022-07-03T12:49:09;0.60;;;0.30;;
50745;SDS011;36711;51.972;21.204;2022-07-03T12:54:09;0.50;;;0.20;;
50745;SDS011;36711;51.972;21.204;2022-07-03T12:56:37;0.30;;;0.30;;
50745;SDS011;36711;51.972;21.204;2022-07-03T12:59:06;0.80;;;0.40;;
50745;SDS011;36711;51.972;21.204;2022-07-03T13:01:58;0.90;;;0.40;;
50745;SDS011;36711;51.972;21.204;2022-07-03T13:04:35;3.40;;;0.50;;
50745;SDS011;36711;51.972;21.204;2022-07-03T13:07:06;3.90;;;0.50;;
50745;SDS011;36711;51.972;21.204;2022-07-03T13:09:35;1.50;;;0.30;;
50745;SDS011;36711;51.972;21.204;2022-07-03T13:12:04;1.20;;;0.50;;
50745;SDS011;36711;51.972;21.204;2022-07-03T13:14:32;0.40;;;0.30;;
50745;SDS011;36711;51.972;21.204;2022-07-03T13:17:00;1.90;;;0.30;;
50745;SDS011;36711;51.972;21.204;2022-07-03T13:19:28;1.00;;;0.40;;
50745;SDS011;36711;51.972;21.204;2022-07-03T13:21:57;2.30;;;0.40;;
50745;SDS011;36711;51.972;21.204;2022-07-03T13:24:25;1.00;;;0.30;;
50745;SDS011;36711;51.972;21.204;2022-07-03T13:26:53;0.90;;;0.40;;
50745;SDS011;36711;51.972;21.204;2022-07-03T13:29:22;0.30;;;0.30;;
50745;SDS011;36711;51.972;21.204;2022-07-03T13:31:53;4.50;;;0.40;;
50745;SDS011;36711;51.972;21.204;2022-07-03T13:34:21;0.70;;;0.40;;
50745;SDS011;36711;51.972;21.204;2022-07-03T13:36:49;0.90;;;0.30;;
50745;SDS011;36711;51.972;21.204;2022-07-03T13:39:17;1.00;;;0.40;;
50745;SDS011;36711;51.972;21.204;2022-07-03T13:41:45;1.00;;;0.40;;
50745;SDS011;36711;51.972;21.204;2022-07-03T13:44:13;5.10;;;0.40;;
50745;SDS011;36711;51.972;21.204;2022-07-03T13:46:41;1.50;;;0.40;;
50745;SDS011;36711;51.972;21.204;2022-07-03T13:49:14;1.10;;;0.50;;
50745;SDS011;36711;51.972;21.204;2022-07-03T13:51:42;1.40;;;0.30;;
50745;SDS011;36711;51.972;21.204;2022-07-03T13:54:10;1.50;;;0.50;;
50745;SDS011;36711;51.972;21.204;2022-07-03T13:56:38;0.40;;;0.30;;
50745;SDS011;36711;51.972;21.204;2022-07-03T13:59:06;1.60;;;0.50;;
50745;SDS011;36711;51.972;21.204;2022-07-03T14:01:33;3.70;;;0.50;;
50745;SDS011;36711;51.972;21.204;2022-07-03T14:04:01;0.90;;;0.50;;
50745;SDS011;36711;51.972;21.204;2022-07-03T14:06:29;1.40;;;0.70;;
50745;SDS011;36711;51.972;21.204;2022-07-03T14:08:57;1.90;;;0.60;;
50745;SDS011;36711;51.972;21.204;2022-07-03T14:11:24;0.80;;;0.40;;
50745;SDS011;36711;51.972;21.204;2022-07-03T14:13:52;1.00;;;0.60;;
50745;SDS011;36711;51.972;21.204;2022-07-03T14:16:20;0.70;;;0.30;;
50745;SDS011;36711;51.972;21.204;2022-07-03T14:18:48;1.00;;;0.40;;
50745;SDS011;36711;51.972;21.204;2022-07-03T14:21:16;1.10;;;0.50;;
50745;SDS011;36711;51.972;21.204;2022-07-03T14:23:43;0.30;;;0.20;;
50745;SDS011;36711;51.972;21.204;2022-07-03T14:26:11;0.70;;;0.40;;
50745;SDS011;36711;51.972;21.204;2022-07-03T14:28:39;0.90;;;0.40;;
50745;SDS011;36711;51.972;21.204;2022-07-03T14:31:25;0.70;;;0.40;;
50745;SDS011;36711;51.972;21.204;2022-07-03T14:34:11;2.60;;;0.40;;
50745;SDS011;36711;51.972;21.204;2022-07-03T14:36:39;0.50;;;0.40;;
50745;SDS011;36711;51.972;21.204;2022-07-03T14:39:11;1.00;;;0.50;;
50745;SDS011;36711;51.972;21.204;2022-07-03T14:41:41;1.10;;;0.40;;
50745;SDS011;36711;51.972;21.204;2022-07-03T14:44:10;0.70;;;0.40;;
50745;SDS011;36711;51.972;21.204;2022-07-03T14:46:37;0.40;;;0.40;;
50745;SDS011;36711;51.972;21.204;2022-07-03T14:49:05;2.20;;;0.60;;
50745;SDS011;36711;51.972;21.204;2022-07-03T14:51:33;1.00;;;0.40;;
50745;SDS011;36711;51.972;21.204;2022-07-03T14:54:01;1.00;;;0.40;;
50745;SDS011;36711;51.972;21.204;2022-07-03T14:56:29;0.40;;;0.40;;
50745;SDS011;36711;51.972;21.204;2022-07-03T14:58:57;2.10;;;0.40;;
50745;SDS011;36711;51.972;21.204;2022-07-03T15:01:30;0.80;;;0.50;;
50745;SDS011;36711;51.972;21.204;2022-07-03T15:03:59;1.10;;;0.70;;
50745;SDS011;36711;51.972;21.204;2022-07-03T15:06:29;0.40;;;0.40;;
50745;SDS011;36711;51.972;21.204;2022-07-03T15:09:03;4.90;;;0.60;;
50745;SDS011;36711;51.972;21.204;2022-07-03T15:11:34;0.70;;;0.40;;
50745;SDS011;36711;51.972;21.204;2022-07-03T15:14:23;1.70;;;0.50;;
50745;SDS011;36711;51.972;21.204;2022-07-03T15:16:53;2.00;;;0.50;;
50745;SDS011;36711;51.972;21.204;2022-07-03T15:19:21;0.90;;;0.60;;
50745;SDS011;36711;51.972;21.204;2022-07-03T15:21:51;1.20;;;0.60;;
50745;SDS011;36711;51.972;21.204;2022-07-03T15:24:19;1.50;;;0.40;;
50745;SDS011;36711;51.972;21.204;2022-07-03T15:26:53;4.70;;;0.70;;
50745;SDS011;36711;51.972;21.204;2022-07-03T15:29:21;1.60;;;0.60;;
50745;SDS011;36711;51.972;21.204;2022-07-03T15:31:49;5.20;;;0.60;;
50745;SDS011;36711;51.972;21.204;2022-07-03T15:34:17;0.50;;;0.50;;
50745;SDS011;36711;51.972;21.204;2022-07-03T15:36:51;0.50;;;0.40;;
50745;SDS011;36711;51.972;21.204;2022-07-03T15:39:30;1.80;;;0.60;;
50745;SDS011;36711;51.972;21.204;2022-07-03T15:42:20;0.60;;;0.50;;
50745;SDS011;36711;51.972;21.204;2022-07-03T15:45:03;0.70;;;0.50;;
50745;SDS011;36711;51.972;21.204;2022-07-03T15:53:14;1.10;;;0.50;;
50745;SDS011;36711;51.972;21.204;2022-07-03T15:55:47;1.40;;;0.80;;
50745;SDS011;36711;51.972;21.204;2022-07-03T15:58:18;3.80;;;0.60;;
50745;SDS011;36711;51.972;21.204;2022-07-03T16:00:52;0.60;;;0.60;;
50745;SDS011;36711;51.972;21.204;2022-07-03T16:03:44;1.20;;;0.70;;
50745;SDS011;36711;51.972;21.204;2022-07-03T16:06:20;2.90;;;0.70;;
50745;SDS011;36711;51.972;21.204;2022-07-03T16:08:49;2.90;;;0.50;;
50745;SDS011;36711;51.972;21.204;2022-07-03T16:11:17;0.70;;;0.60;;
50745;SDS011;36711;51.972;21.204;2022-07-03T16:13:46;1.70;;;1.00;;
50745;SDS011;36711;51.972;21.204;2022-07-03T16:16:17;0.70;;;0.50;;
50745;SDS011;36711;51.972;21.204;2022-07-03T16:18:47;1.40;;;0.60;;
50745;SDS011;36711;51.972;21.204;2022-07-03T16:21:18;0.60;;;0.60;;
50745;SDS011;36711;51.972;21.204;2022-07-03T16:23:49;0.70;;;0.70;;
50745;SDS011;36711;51.972;21.204;2022-07-03T16:26:18;1.00;;;0.60;;
50745;SDS011;36711;51.972;21.204;2022-07-03T16:28:47;0.90;;;0.80;;
50745;SDS011;36711;51.972;21.204;2022-07-03T16:31:15;1.30;;;0.80;;